Time;durP1;ratioP1;P1;durP2;ratioP2;P2;SDS_P1;SDS_P2;PMS_P1;PMS_P2;Temp;Humidity;BMP_temperature;BMP_pressure;BME280_temperature;BME280_humidity;BME280_pressure;Samples;Min_cycle;Max_cycle;Signal;HPM_P1;HPM_P2
2021/03/15 00:00:08;;;;;;;33.96;21.87;;;;;;;6.11;68.75;98424.16;363450;110;1961960;-69
2021/03/15 00:01:15;;;;;;;;;;;;;;;6.02;68.85;98428.09;365496;111;1961002;-70
2021/03/15 00:02:20;;;;;;;31.58;20.69;;;;;;;5.91;69.12;98421.48;336950;111;1963922;-70
2021/03/15 00:03:27;;;;;;;32.43;21.88;;;;;;;5.84;68.94;98432.18;365075;111;1961978;-70
2021/03/15 00:04:34;;;;;;;32.98;21.94;;;;;;;5.78;69.04;98433.01;318358;111;2734048;-70
2021/03/15 00:05:40;;;;;;;33.77;22.41;;;;;;;5.70;69.30;98442.07;336359;113;1961915;-70
2021/03/15 00:06:46;;;;;;;35.96;25.09;;;;;;;5.65;69.29;98436.50;356357;113;1961927;-71
2021/03/15 00:07:51;;;;;;;32.44;22.41;;;;;;;5.60;69.63;98440.83;365137;110;1960685;-70
2021/03/15 00:08:57;;;;;;;35.43;24.30;;;;;;;5.56;69.74;98434.20;367418;110;1961985;-70
2021/03/15 00:10:05;;;;;;;33.64;22.92;;;;;;;5.50;69.90;98439.37;320158;110;2797042;-70
2021/03/15 00:11:11;;;;;;;36.73;24.44;;;;;;;5.47;69.96;98441.62;364559;108;1962039;-71
2021/03/15 00:12:16;;;;;;;34.22;23.37;;;;;;;5.43;69.92;98435.04;364221;110;1963813;-71
2021/03/15 00:13:23;;;;;;;35.06;24.24;;;;;;;5.36;70.21;98434.19;326039;110;2671045;-70
2021/03/15 00:14:28;;;;;;;34.05;22.61;;;;;;;5.33;70.29;98434.59;361685;110;1964968;-70
2021/03/15 00:15:35;;;;;;;31.17;20.89;;;;;;;5.26;70.62;98432.70;364764;110;1962063;-70
2021/03/15 00:16:41;;;;;;;28.46;18.98;;;;;;;5.24;70.68;98437.47;366369;108;1963033;-71
2021/03/15 00:17:48;;;;;;;29.42;18.13;;;;;;;5.28;70.92;98436.02;323404;110;2702897;-70
2021/03/15 00:18:53;;;;;;;31.07;18.10;;;;;;;5.32;71.17;98436.45;364806;110;1962878;-70
2021/03/15 00:19:59;;;;;;;27.19;18.22;;;;;;;5.39;71.22;98428.42;364735;110;1961955;-71
2021/03/15 00:21:05;;;;;;;26.56;16.86;;;;;;;5.47;71.02;98434.41;363574;110;1961950;-70
2021/03/15 00:22:12;;;;;;;25.52;17.76;;;;;;;5.53;70.97;98437.30;364537;108;1961935;-70
2021/03/15 00:23:17;;;;;;;29.11;18.31;;;;;;;5.57;70.88;98431.34;331423;110;2560080;-70
2021/03/15 00:24:23;;;;;;;30.98;19.68;;;;;;;5.65;70.98;98438.36;326238;109;1960692;-70
2021/03/15 00:25:28;;;;;;;30.06;18.96;;;;;;;5.71;70.85;98440.21;333077;113;1964061;-70
2021/03/15 00:26:34;;;;;;;26.63;18.46;;;;;;;5.78;70.68;98441.05;349686;114;1964929;-70
2021/03/15 00:27:40;;;;;;;28.32;18.14;;;;;;;5.82;70.47;98439.63;351499;113;1961906;-71
2021/03/15 00:28:45;;;;;;;27.42;18.48;;;;;;;5.87;70.32;98438.98;348722;113;1962980;-71
2021/03/15 00:29:51;;;;;;;32.13;20.27;;;;;;;5.92;70.20;98434.65;346327;115;1961950;-71
2021/03/15 00:30:58;;;;;;;31.76;20.46;;;;;;;5.97;70.20;98436.75;288354;115;2181029;-70
2021/03/15 00:32:04;;;;;;;29.74;18.81;;;;;;;6.03;70.06;98435.09;332916;115;1962000;-70
2021/03/15 00:33:09;;;;;;;28.28;19.12;;;;;;;6.10;69.94;98433.25;347944;115;1962017;-70
2021/03/15 00:34:15;;;;;;;28.46;20.12;;;;;;;6.13;69.68;98433.64;345617;115;1961899;-69
2021/03/15 00:35:22;;;;;;;30.79;20.93;;;;;;;6.17;69.52;98439.44;348668;115;1962043;-71
2021/03/15 00:36:29;;;;;;;30.63;21.64;;;;;;;6.18;69.25;98440.26;345038;115;1961959;-71
2021/03/15 00:37:35;;;;;;;30.06;19.84;;;;;;;6.18;68.95;98441.08;348322;115;1963039;-71
2021/03/15 00:38:41;;;;;;;31.12;21.32;;;;;;;6.11;68.81;98434.88;345692;115;1962052;-71
2021/03/15 00:39:47;;;;;;;30.99;21.56;;;;;;;6.05;68.73;98435.72;308661;108;2751199;-71
2021/03/15 00:40:52;;;;;;;34.09;22.37;;;;;;;5.94;68.98;98437.98;343505;109;1963926;-71
2021/03/15 00:41:57;;;;;;;35.03;22.46;;;;;;;5.78;69.22;98421.48;361632;109;1963027;-71
2021/03/15 00:43:02;;;;;;;35.86;22.72;;;;;;;5.79;69.33;98433.83;361171;109;1961972;-71
2021/03/15 00:44:09;;;;;;;34.11;21.90;;;;;;;5.73;69.66;98443.52;365483;107;1960838;-71
2021/03/15 00:45:17;;;;;;;34.62;23.01;;;;;;;5.69;69.64;98439.61;356780;110;1961918;-71
2021/03/15 00:46:23;;;;;;;31.63;21.43;;;;;;;5.64;69.58;98445.58;364974;108;1961930;-70
2021/03/15 00:47:29;;;;;;;35.64;23.97;;;;;;;5.61;69.70;98443.31;366127;107;1961876;-70
2021/03/15 00:48:35;;;;;;;35.17;23.52;;;;;;;5.57;69.64;98447.41;344328;109;2284992;-70
2021/03/15 00:49:40;;;;;;;35.93;24.80;;;;;;;5.54;69.52;98442.47;352930;110;1962016;-70
2021/03/15 00:50:46;;;;;;;36.94;23.87;;;;;;;5.49;69.83;98443.06;364210;109;1961956;-70
2021/03/15 00:51:54;;;;;;;36.23;24.49;;;;;;;5.46;69.97;98448.02;319514;109;2779983;-70
2021/03/15 00:53:00;;;;;;;36.79;24.36;;;;;;;5.41;70.04;98437.09;365740;108;1961998;-70
2021/03/15 00:54:05;;;;;;;33.08;21.85;;;;;;;5.37;70.12;98444.71;368535;108;1962011;-69
2021/03/15 00:55:11;;;;;;;32.42;20.45;;;;;;;5.35;70.29;98437.91;366739;108;1962039;-69
2021/03/15 00:56:17;;;;;;;30.08;20.89;;;;;;;5.34;70.45;98431.70;368481;108;1962020;-70
2021/03/15 00:57:23;;;;;;;29.91;19.78;;;;;;;5.35;70.70;98438.73;332693;107;2534654;-70
2021/03/15 00:58:29;;;;;;;26.70;17.33;;;;;;;5.41;70.72;98435.23;358099;107;1961936;-70
2021/03/15 00:59:35;;;;;;;27.34;18.27;;;;;;;5.45;70.84;98436.48;372568;107;1963948;-69
2021/03/15 01:00:45;;;;;;;28.16;18.17;;;;;;;5.53;70.79;98430.11;369520;108;1962020;-70
2021/03/15 01:02:04;;;;;;;28.22;17.88;;;;;;;5.61;70.81;98421.88;327225;118;1961946;-71
2021/03/15 01:03:21;;;;;;;30.76;18.44;;;;;;;5.70;70.66;98425.17;353440;108;1960778;-70
2021/03/15 01:04:29;;;;;;;28.29;18.27;;;;;;;5.75;70.45;98420.03;337172;109;2445970;-69
2021/03/15 01:05:50;;;;;;;27.09;17.51;;;;;;;5.83;70.41;98419.00;364583;110;1961952;-69
2021/03/15 01:07:10;;;;;;;27.73;18.17;;;;;;;5.90;70.37;98420.66;363058;110;1961983;-70
2021/03/15 01:08:18;;;;;;;28.46;18.96;;;;;;;5.98;70.16;98419.66;356738;112;1962021;-69
2021/03/15 01:09:24;;;;;;;26.68;17.55;;;;;;;6.06;69.98;98421.27;355212;112;1961974;-70
2021/03/15 01:10:36;;;;;;;29.33;19.76;;;;;;;6.08;69.80;98419.22;320154;112;2905925;-70
2021/03/15 01:11:43;;;;;;;28.73;20.16;;;;;;;6.14;69.52;98415.73;311007;109;2869990;-70
2021/03/15 01:12:51;;;;;;;36.46;20.36;;;;;;;6.16;69.47;98408.28;362114;109;1962962;-70
2021/03/15 01:14:09;;;;;;;32.23;21.97;;;;;;;6.14;69.21;98405.00;361080;109;1962004;-70
2021/03/15 01:15:33;;;;;;;34.75;23.31;;;;;;;6.08;69.17;98403.14;350730;107;2270992;-70
2021/03/15 01:16:40;;;;;;;36.57;24.12;;;;;;;5.97;69.18;98403.77;369532;109;1961842;-70
2021/03/15 01:17:50;;;;;;;35.95;24.18;;;;;;;5.90;69.09;98399.22;366053;110;1961876;-70
2021/03/15 01:18:57;;;;;;;34.99;23.35;;;;;;;5.83;69.07;98394.89;313419;110;2848002;-70
2021/03/15 01:20:05;;;;;;;36.53;23.60;;;;;;;5.72;69.14;98391.79;343442;111;1961934;-70
2021/03/15 01:21:15;;;;;;;35.37;23.69;;;;;;;5.63;69.45;98403.72;365452;104;1960804;-70
2021/03/15 01:22:21;;;;;;;36.58;25.35;;;;;;;5.56;69.51;98397.56;327128;111;2589022;-71
2021/03/15 01:23:27;;;;;;;39.22;26.11;;;;;;;5.48;69.59;98387.86;352565;111;1961931;-70
2021/03/15 01:24:32;;;;;;;40.22;27.59;;;;;;;5.41;69.82;98384.34;356570;111;1961974;-70
2021/03/15 01:25:40;;;;;;;44.09;29.38;;;;;;;5.33;70.15;98386.40;362782;110;1963889;-70
2021/03/15 01:26:45;;;;;;;39.33;26.33;;;;;;;5.24;70.28;98385.77;322797;109;1981083;-70
2021/03/15 01:27:52;;;;;;;37.31;24.28;;;;;;;5.16;70.80;98381.44;365027;109;1961994;-70
2021/03/15 01:28:59;;;;;;;32.72;22.57;;;;;;;5.11;71.19;98380.36;362764;109;1963143;-70
2021/03/15 01:30:11;;;;;;;36.77;24.36;;;;;;;5.10;71.39;98392.92;367337;108;1961937;-69
2021/03/15 01:31:16;;;;;;;36.93;23.58;;;;;;;5.14;71.48;98386.16;360508;107;1962252;-70
2021/03/15 01:32:22;;;;;;;35.83;23.01;;;;;;;5.20;71.54;98385.34;353198;113;1962025;-71
2021/03/15 01:33:29;;;;;;;35.56;22.43;;;;;;;5.26;71.59;98389.05;353894;111;1959713;-70
2021/03/15 01:34:35;;;;;;;32.83;20.52;;;;;;;5.36;71.52;98402.05;347434;111;2895044;-70
2021/03/15 01:35:42;;;;;;;32.20;21.17;;;;;;;5.41;71.54;98399.59;355616;111;1963985;-70
2021/03/15 01:36:48;;;;;;;36.17;22.49;;;;;;;5.47;71.51;98404.12;353127;110;1960733;-71
2021/03/15 01:37:53;;;;;;;36.18;22.11;;;;;;;5.53;71.33;98400.66;357882;111;1963008;-72
2021/03/15 01:38:59;;;;;;;37.74;22.75;;;;;;;5.61;71.36;98399.59;356585;111;1962002;-72
2021/03/15 01:40:14;;;;;;;37.57;23.39;;;;;;;5.64;71.15;98402.71;335149;109;2376924;-72
2021/03/15 01:41:20;;;;;;;34.94;22.99;;;;;;;5.70;71.04;98404.56;324281;107;2880034;-71
2021/03/15 01:42:26;;;;;;;36.21;21.93;;;;;;;5.79;70.98;98407.85;343151;107;1966976;-72
2021/03/15 01:43:31;;;;;;;34.05;21.24;;;;;;;5.85;70.81;98412.41;361238;109;1962926;-72
2021/03/15 01:44:36;;;;;;;32.98;21.07;;;;;;;5.90;70.71;98412.62;365116;110;1962069;-72
2021/03/15 01:45:43;;;;;;;32.16;18.63;;;;;;;5.99;70.52;98415.12;358857;112;1966022;-72
2021/03/15 01:46:49;;;;;;;32.10;20.38;;;;;;;6.05;70.15;98414.28;357253;112;1963002;-73
2021/03/15 01:47:55;;;;;;;33.33;21.50;;;;;;;6.08;70.05;98411.17;358408;109;1961981;-73
2021/03/15 01:49:01;;;;;;;30.61;19.96;;;;;;;6.10;69.93;98420.66;324049;110;2610969;-73
2021/03/15 01:50:09;;;;;;;30.96;20.66;;;;;;;6.10;69.62;98414.48;356271;113;1962108;-73
2021/03/15 01:51:16;;;;;;;36.03;21.48;;;;;;;6.15;69.95;98428.09;355199;111;1962047;-73
2021/03/15 01:52:22;;;;;;;36.90;23.95;;;;;;;6.16;69.28;98417.14;371609;109;1961953;-73
2021/03/15 01:53:28;;;;;;;35.29;23.38;;;;;;;6.11;69.44;98421.48;370445;109;1961960;-72
2021/03/15 01:54:34;;;;;;;32.49;22.22;;;;;;;6.06;69.50;98418.59;370166;109;1961892;-73
2021/03/15 01:55:41;;;;;;;35.38;23.43;;;;;;;6.01;69.45;98419.23;339512;109;1961952;-72
2021/03/15 01:56:50;;;;;;;35.46;24.12;;;;;;;5.94;69.50;98426.45;371009;109;1962046;-72
2021/03/15 01:57:55;;;;;;;36.92;24.44;;;;;;;5.86;69.56;98422.09;369261;109;1964081;-73
2021/03/15 01:59:02;;;;;;;36.49;24.17;;;;;;;5.79;69.63;98420.43;371591;109;1963863;-73
2021/03/15 02:00:10;;;;;;;37.24;25.16;;;;;;;5.70;69.62;98420.64;369201;109;1962022;-72
2021/03/15 02:01:19;;;;;;;41.59;27.14;;;;;;;5.64;69.90;98420.65;332535;109;2225954;-73
2021/03/15 02:02:26;;;;;;;40.26;25.80;;;;;;;5.55;70.28;98419.17;367758;109;1962990;-72
2021/03/15 02:03:32;;;;;;;38.24;25.39;;;;;;;5.52;70.04;98412.38;367447;109;1961954;-72
2021/03/15 02:04:38;;;;;;;34.74;21.73;;;;;;;5.46;70.48;98416.70;339453;109;2494944;-72
2021/03/15 02:05:46;;;;;;;31.73;20.87;;;;;;;5.42;70.72;98417.30;367653;109;1962985;-72
2021/03/15 02:06:53;;;;;;;33.12;22.10;;;;;;;5.43;70.86;98421.64;370729;109;1961961;-72
2021/03/15 02:07:59;;;;;;;31.96;19.96;;;;;;;5.44;71.10;98416.07;339375;109;1961963;-72
2021/03/15 02:09:04;;;;;;;32.86;20.29;;;;;;;5.52;71.07;98415.05;355785;111;1961919;-73
2021/03/15 02:10:11;;;;;;;33.14;21.25;;;;;;;5.55;71.16;98416.50;355454;113;1961951;-72
2021/03/15 02:11:19;;;;;;;31.02;19.89;;;;;;;5.61;71.12;98421.88;358193;112;1961849;-72
2021/03/15 02:12:37;;;;;;;30.10;20.07;;;;;;;5.69;71.04;98426.22;358208;112;1962002;-72
2021/03/15 02:13:49;;;;;;;32.66;19.97;;;;;;;5.73;70.94;98419.41;358549;112;1961967;-73
2021/03/15 02:15:19;;;;;;;30.78;19.26;;;;;;;5.77;70.85;98422.48;345942;112;1961928;-72
2021/03/15 02:16:37;;;;;;;32.33;20.99;;;;;;;5.83;70.84;98422.50;357065;111;1961889;-72
2021/03/15 02:18:02;;;;;;;31.12;19.96;;;;;;;5.87;70.71;98415.68;310437;111;2721923;-71
2021/03/15 02:19:27;;;;;;;32.51;19.57;;;;;;;5.88;70.50;98409.31;334397;111;2414926;-71
2021/03/15 02:20:37;;;;;;;30.02;19.76;;;;;;;5.94;70.57;98415.73;337012;113;2309969;-71
2021/03/15 02:22:20;;;;;;;33.73;20.59;;;;;;;5.98;70.39;98408.09;308671;113;2875014;-71
2021/03/15 02:23:49;;;;;;;33.16;20.01;;;;;;;6.06;70.33;98407.87;355108;113;1962995;-71
2021/03/15 02:25:15;;;;;;;33.74;20.14;;;;;;;6.13;70.16;98411.38;345054;108;1969009;-71
2021/03/15 02:26:39;;;;;;;31.84;19.78;;;;;;;6.16;70.09;98414.45;374452;108;1962043;-71
2021/03/15 02:28:10;;;;;;;33.05;19.95;;;;;;;6.25;69.85;98417.77;372108;108;1961917;-72
2021/03/15 02:29:39;;;;;;;34.28;21.76;;;;;;;6.28;69.61;98408.48;369433;108;1961772;-72
2021/03/15 02:30:51;;;;;;;36.35;22.26;;;;;;;6.32;69.49;98410.52;371024;108;1961977;-72
2021/03/15 02:32:32;;;;;;;34.66;22.15;;;;;;;6.33;69.14;98414.05;361308;110;1961916;-72
2021/03/15 02:34:16;;;;;;;36.25;22.92;;;;;;;6.24;69.21;98410.73;336228;111;1961958;-72
2021/03/15 02:35:28;;;;;;;39.22;24.66;;;;;;;6.13;69.29;98414.06;360004;112;1961985;-72
2021/03/15 02:36:38;;;;;;;41.60;25.98;;;;;;;6.01;69.25;98405.84;358875;112;1960972;-72
2021/03/15 02:37:47;;;;;;;41.64;26.30;;;;;;;5.92;69.32;98413.21;358037;113;1961994;-72
2021/03/15 02:38:53;;;;;;;46.88;30.11;;;;;;;5.83;69.38;98409.10;335543;109;1962090;-72
2021/03/15 02:40:02;;;;;;;50.81;31.66;;;;;;;5.73;69.61;98414.86;360716;111;1962019;-72
2021/03/15 02:41:10;;;;;;;54.96;34.98;;;;;;;5.63;69.88;98419.80;349913;107;1960746;-73
2021/03/15 02:42:17;;;;;;;56.16;34.94;;;;;;;5.55;70.55;98411.14;361754;109;1962042;-72
2021/03/15 02:43:29;;;;;;;54.28;32.46;;;;;;;5.47;70.23;98410.30;362337;109;1962085;-72
2021/03/15 02:44:36;;;;;;;;;;;;;;;5.41;70.69;98413.80;366634;109;1961008;-72
2021/03/15 02:45:44;;;;;;;49.15;29.64;;;;;;;5.28;71.73;98413.78;313249;111;2051122;-71
2021/03/15 02:46:51;;;;;;;42.54;26.72;;;;;;;5.31;71.33;98405.33;362249;111;1961848;-72
2021/03/15 02:47:59;;;;;;;41.01;24.42;;;;;;;5.35;71.33;98405.77;355257;111;1962086;-72
2021/03/15 02:49:09;;;;;;;40.71;24.88;;;;;;;5.41;71.35;98400.41;363022;111;1960981;-72
2021/03/15 02:50:16;;;;;;;40.69;24.19;;;;;;;5.46;71.34;98402.48;363691;111;1963923;-72
2021/03/15 02:51:25;;;;;;;38.22;25.05;;;;;;;5.53;71.30;98407.84;363028;111;1962018;-72
2021/03/15 02:52:33;;;;;;;40.36;23.71;;;;;;;5.54;71.34;98402.29;321808;109;2686971;-72
2021/03/15 02:53:41;;;;;;;36.07;22.68;;;;;;;5.58;71.34;98395.48;363279;111;1961898;-73
2021/03/15 02:54:48;;;;;;;35.18;21.86;;;;;;;5.62;71.33;98399.41;327026;111;1961975;-72
2021/03/15 02:55:57;;;;;;;39.81;23.06;;;;;;;5.68;71.20;98395.08;362127;111;1961986;-72
2021/03/15 02:57:06;;;;;;;37.56;22.48;;;;;;;5.72;71.18;98388.30;361054;111;1961908;-72
2021/03/15 02:58:12;;;;;;;38.66;23.46;;;;;;;5.76;71.02;98391.38;331462;111;1964085;-72
2021/03/15 02:59:20;;;;;;;35.02;21.87;;;;;;;5.77;71.00;98393.02;362430;111;1962007;-73
2021/03/15 03:00:28;;;;;;;32.35;20.94;;;;;;;5.79;71.10;98388.28;340624;111;2356984;-73
2021/03/15 03:01:35;;;;;;;33.37;21.37;;;;;;;5.81;70.98;98387.05;362275;111;1963994;-72
2021/03/15 03:02:44;;;;;;;35.08;22.14;;;;;;;5.85;70.96;98384.80;317353;111;2797993;-72
2021/03/15 03:03:53;;;;;;;34.08;21.22;;;;;;;5.90;70.82;98396.53;362248;109;1962903;-72
2021/03/15 03:05:00;;;;;;;36.05;22.79;;;;;;;5.92;70.49;98390.95;362237;111;1961922;-72
2021/03/15 03:06:08;;;;;;;35.07;20.97;;;;;;;5.90;70.54;98393.86;357893;112;1961975;-72
2021/03/15 03:07:16;;;;;;;35.74;22.18;;;;;;;5.91;70.55;98390.13;357475;112;1964986;-72
2021/03/15 03:08:25;;;;;;;38.04;22.05;;;;;;;5.91;70.47;98392.81;287609;112;2278037;-72
2021/03/15 03:09:31;;;;;;;36.01;21.83;;;;;;;5.91;70.58;98391.99;357517;112;1961984;-72
2021/03/15 03:10:39;;;;;;;36.94;21.97;;;;;;;5.95;70.54;98395.92;358436;112;1963003;-71
2021/03/15 03:11:46;;;;;;;35.63;22.36;;;;;;;5.97;70.29;98388.50;358225;112;1962009;-72
2021/03/15 03:12:52;;;;;;;33.74;22.62;;;;;;;5.96;70.19;98397.59;358772;112;1961896;-72
2021/03/15 03:13:59;;;;;;;34.73;21.71;;;;;;;5.97;70.15;98391.19;318654;111;2015085;-71
2021/03/15 03:15:08;;;;;;;33.02;21.44;;;;;;;5.98;70.08;98394.69;361947;109;1961962;-71
2021/03/15 03:16:13;;;;;;;38.02;22.36;;;;;;;5.97;70.12;98401.09;361862;111;1961915;-72
2021/03/15 03:17:22;;;;;;;36.11;22.62;;;;;;;5.99;70.17;98391.81;362183;111;1963965;-71
2021/03/15 03:18:31;;;;;;;34.52;22.23;;;;;;;5.98;70.09;98392.86;340354;111;1964915;-71
2021/03/15 03:19:40;;;;;;;35.63;22.92;;;;;;;5.98;69.94;98398.22;317718;111;2771049;-72
2021/03/15 03:20:49;;;;;;;38.33;23.73;;;;;;;5.96;70.07;98394.91;364470;111;1962011;-72
2021/03/15 03:21:57;;;;;;;37.12;23.66;;;;;;;5.95;70.06;98403.97;350578;113;1963965;-72
2021/03/15 03:23:05;;;;;;;35.16;22.02;;;;;;;5.94;70.02;98389.74;316687;111;2778998;-72
2021/03/15 03:24:13;;;;;;;35.08;22.44;;;;;;;5.94;69.88;98392.42;363165;111;1962064;-72
2021/03/15 03:25:21;;;;;;;38.59;25.51;;;;;;;5.89;70.01;98397.55;361830;109;1962025;-72
2021/03/15 03:26:29;;;;;;;34.78;22.61;;;;;;;5.87;70.08;98391.56;339015;111;2330029;-72
2021/03/15 03:27:36;;;;;;;37.23;23.08;;;;;;;5.84;70.17;98394.66;363681;111;1961926;-73
2021/03/15 03:28:43;;;;;;;41.39;25.06;;;;;;;5.79;70.41;98386.42;363203;111;1961910;-73
2021/03/15 03:29:49;;;;;;;38.29;23.89;;;;;;;5.79;70.49;98404.35;361377;109;1962017;-72
2021/03/15 03:30:58;;;;;;;36.63;22.11;;;;;;;5.80;70.49;98397.98;361867;111;1961932;-72
2021/03/15 03:32:04;;;;;;;35.90;22.12;;;;;;;5.81;70.56;98400.44;331223;111;1961952;-72
2021/03/15 03:33:13;;;;;;;35.46;21.98;;;;;;;5.83;70.59;98409.10;362027;111;1962004;-72
2021/03/15 03:34:19;;;;;;;36.81;22.86;;;;;;;5.86;70.59;98402.51;346557;111;1961937;-72
2021/03/15 03:35:25;;;;;;;37.98;22.32;;;;;;;5.88;70.55;98408.49;362157;111;1962004;-71
2021/03/15 03:36:33;;;;;;;39.53;23.24;;;;;;;5.90;70.52;98406.41;361454;109;1962950;-72
2021/03/15 03:37:39;;;;;;;39.46;23.89;;;;;;;5.91;70.53;98410.75;341542;111;1961981;-72
2021/03/15 03:38:44;;;;;;;39.52;23.92;;;;;;;5.91;70.57;98411.58;358704;109;1963918;-72
2021/03/15 03:39:51;;;;;;;34.56;22.78;;;;;;;5.91;70.61;98414.25;363862;109;1961992;-71
2021/03/15 03:40:57;;;;;;;39.92;22.46;;;;;;;5.92;70.66;98410.53;364369;111;1960753;-72
2021/03/15 03:42:03;;;;;;;39.83;23.59;;;;;;;5.95;70.69;98406.64;361973;111;1960666;-71
2021/03/15 03:43:08;;;;;;;37.41;23.03;;;;;;;5.99;70.60;98407.08;332199;111;2504736;-72
2021/03/15 03:44:14;;;;;;;38.68;22.78;;;;;;;5.99;70.53;98407.08;330294;111;1960802;-72
2021/03/15 03:45:20;;;;;;;39.08;23.29;;;;;;;5.99;70.69;98407.89;344923;109;1960841;-72
2021/03/15 03:46:26;;;;;;;39.03;23.28;;;;;;;5.99;70.73;98413.25;357427;112;1960748;-71
2021/03/15 03:47:32;;;;;;;36.89;22.64;;;;;;;6.02;70.81;98403.97;357886;112;1960863;-72
2021/03/15 03:48:38;;;;;;;40.40;24.30;;;;;;;6.02;70.73;98412.02;359589;111;1960836;-72
2021/03/15 03:49:45;;;;;;;39.93;24.04;;;;;;;6.04;70.82;98413.46;336604;111;2397776;-72
2021/03/15 03:50:51;;;;;;;40.86;23.31;;;;;;;6.08;70.70;98417.36;361928;111;1961086;-72
2021/03/15 03:52:06;;;;;;;41.31;24.55;;;;;;;6.11;70.66;98424.16;362173;111;1962894;-72
2021/03/15 03:53:30;;;;;;;36.90;22.83;;;;;;;6.09;70.53;98423.56;362379;111;1961992;-72
2021/03/15 03:54:45;;;;;;;40.24;22.94;;;;;;;6.13;70.61;98420.24;364635;109;1962957;-72
2021/03/15 03:56:00;;;;;;;35.13;22.42;;;;;;;6.13;70.41;98422.11;353703;111;1962973;-72
2021/03/15 03:57:15;;;;;;;39.59;22.91;;;;;;;6.10;70.53;98420.66;353180;109;1962903;-71
2021/03/15 03:58:22;;;;;;;40.49;24.37;;;;;;;6.15;70.39;98426.23;341985;111;1962017;-71
2021/03/15 03:59:31;;;;;;;40.14;23.11;;;;;;;6.10;70.45;98425.20;361123;111;1961981;-72
2021/03/15 04:00:38;;;;;;;41.68;23.54;;;;;;;6.12;70.40;98426.65;357797;112;1961954;-72
2021/03/15 04:01:48;;;;;;;40.63;23.68;;;;;;;6.13;70.46;98430.15;359324;112;1962023;-72
2021/03/15 04:02:58;;;;;;;39.88;23.58;;;;;;;6.11;70.49;98435.73;357931;112;1961962;-72
2021/03/15 04:04:06;;;;;;;37.82;23.42;;;;;;;6.10;70.56;98435.93;357981;112;1962978;-72
2021/03/15 04:05:16;;;;;;;37.54;22.52;;;;;;;6.14;70.55;98431.81;361620;111;1962907;-72
2021/03/15 04:06:25;;;;;;;41.06;23.66;;;;;;;6.19;70.41;98442.72;364495;111;1962963;-72
2021/03/15 04:07:34;;;;;;;38.87;24.10;;;;;;;6.18;70.37;98438.39;359726;111;1962046;-72
2021/03/15 04:08:43;;;;;;;45.15;24.93;;;;;;;6.21;70.15;98439.84;361693;111;1962072;-73
2021/03/15 04:09:52;;;;;;;43.40;25.74;;;;;;;6.21;70.15;98431.80;360673;111;1961946;-72
2021/03/15 04:11:00;;;;;;;40.62;24.24;;;;;;;6.17;70.26;98436.76;360243;111;1961932;-72
2021/03/15 04:12:10;;;;;;;44.96;24.71;;;;;;;6.18;70.30;98432.22;322654;111;1984948;-71
2021/03/15 04:13:23;;;;;;;44.10;25.16;;;;;;;6.18;70.42;98434.89;355102;111;2941018;-71
2021/03/15 04:14:37;;;;;;;40.62;23.42;;;;;;;6.18;70.53;98438.39;360841;111;1962009;-73
2021/03/15 04:15:46;;;;;;;43.68;24.79;;;;;;;6.24;70.42;98436.73;360598;111;1962119;-73
2021/03/15 04:16:53;;;;;;;42.28;24.98;;;;;;;6.25;70.20;98438.41;333691;111;1961082;-71
2021/03/15 04:18:02;;;;;;;47.83;25.55;;;;;;;6.27;70.18;98439.00;359634;113;1961909;-72
2021/03/15 04:19:09;;;;;;;37.77;23.58;;;;;;;6.31;70.03;98445.61;360408;111;1961949;-73
2021/03/15 04:20:19;;;;;;;42.29;27.17;;;;;;;6.31;70.03;98440.24;361403;111;1961962;-72
2021/03/15 04:21:27;;;;;;;43.52;24.89;;;;;;;6.27;69.83;98442.53;360748;111;1961916;-72
2021/03/15 04:22:36;;;;;;;45.39;25.92;;;;;;;6.25;70.11;98449.95;343986;109;1963104;-72
2021/03/15 04:23:44;;;;;;;46.52;26.05;;;;;;;6.26;69.94;98442.72;326646;111;2307032;-73
2021/03/15 04:24:53;;;;;;;42.79;25.57;;;;;;;6.22;69.92;98450.38;363133;111;1961958;-72
2021/03/15 04:26:00;;;;;;;45.23;28.09;;;;;;;6.18;70.01;98451.80;356986;111;1961964;-71
2021/03/15 04:27:07;;;;;;;47.12;27.29;;;;;;;6.15;69.84;98449.54;355413;111;1961970;-72
2021/03/15 04:28:13;;;;;;;42.74;27.21;;;;;;;6.07;70.12;98449.75;361094;111;1962926;-73
2021/03/15 04:29:24;;;;;;;47.78;27.42;;;;;;;6.01;70.23;98448.73;321068;112;2638031;-72
2021/03/15 04:30:34;;;;;;;43.67;26.26;;;;;;;5.93;70.57;98449.75;336599;111;1963060;-72
2021/03/15 04:31:40;;;;;;;42.22;24.68;;;;;;;5.88;70.81;98448.69;353511;113;1963982;-72
2021/03/15 04:32:52;;;;;;;45.02;25.47;;;;;;;5.86;70.83;98451.56;326922;111;2523076;-73
2021/03/15 04:34:05;;;;;;;44.51;25.61;;;;;;;5.85;71.10;98459.83;331715;111;2527647;-72
2021/03/15 04:35:11;;;;;;;44.25;24.02;;;;;;;5.85;70.91;98452.61;359219;113;1962045;-73
2021/03/15 04:36:19;;;;;;;43.89;24.61;;;;;;;5.86;71.07;98456.92;332719;113;1962031;-72
2021/03/15 04:37:26;;;;;;;43.57;24.42;;;;;;;5.90;70.95;98460.01;358490;113;1962072;-72
2021/03/15 04:38:33;;;;;;;41.53;24.29;;;;;;;5.90;71.05;98460.86;318222;113;1961986;-71
2021/03/15 04:39:40;;;;;;;41.56;23.72;;;;;;;5.94;71.06;98459.44;353223;113;1964020;-72
2021/03/15 04:40:50;;;;;;;45.50;25.61;;;;;;;5.96;71.09;98469.96;355129;112;1966025;-72
2021/03/15 04:41:57;;;;;;;42.86;24.71;;;;;;;5.98;70.99;98465.23;354250;113;1964005;-72
2021/03/15 04:43:04;;;;;;;41.09;23.46;;;;;;;5.99;70.88;98466.05;354686;114;1961962;-72
2021/03/15 04:44:13;;;;;;;44.95;25.87;;;;;;;5.99;70.95;98461.50;353870;114;1962005;-72
2021/03/15 04:45:18;;;;;;;43.23;26.00;;;;;;;5.97;71.19;98465.42;355735;114;1964851;-72
2021/03/15 04:46:25;;;;;;;43.33;25.55;;;;;;;5.98;71.17;98459.02;354942;114;1962042;-71
2021/03/15 04:47:32;;;;;;;41.89;24.96;;;;;;;5.95;71.51;98468.29;355014;114;1963867;-72
2021/03/15 04:48:39;;;;;;;40.32;24.59;;;;;;;6.00;71.41;98468.50;316826;114;1963984;-72
2021/03/15 04:49:48;;;;;;;39.40;24.21;;;;;;;6.06;71.26;98466.84;352991;114;1962045;-71
2021/03/15 04:51:01;;;;;;;44.51;25.51;;;;;;;6.06;71.31;98465.02;357351;113;1962948;-74
2021/03/15 04:52:07;;;;;;;40.83;23.84;;;;;;;6.08;71.21;98470.16;352533;115;1964030;-72
2021/03/15 04:53:14;;;;;;;43.92;24.93;;;;;;;6.11;71.11;98467.91;290450;115;2291935;-74
2021/03/15 04:54:19;;;;;;;42.68;24.63;;;;;;;6.11;70.99;98472.42;352777;114;1962005;-72
2021/03/15 04:55:26;;;;;;;41.67;23.65;;;;;;;6.13;70.91;98473.86;353237;115;1962939;-73
2021/03/15 04:56:35;;;;;;;45.02;25.84;;;;;;;6.17;70.78;98468.94;352214;115;1961974;-72
2021/03/15 04:57:43;;;;;;;44.22;25.61;;;;;;;6.16;70.87;98468.08;352092;115;1961970;-71
2021/03/15 04:58:51;;;;;;;42.74;23.82;;;;;;;6.14;70.99;98472.85;326075;115;1961991;-72
2021/03/15 04:59:57;;;;;;;42.86;24.75;;;;;;;6.18;70.77;98475.12;355443;113;1961940;-74
2021/03/15 05:01:05;;;;;;;39.83;23.95;;;;;;;6.15;70.95;98466.45;328535;113;2473005;-73
2021/03/15 05:02:13;;;;;;;46.49;24.96;;;;;;;6.14;70.95;98470.17;357812;113;1962039;-73
2021/03/15 05:03:19;;;;;;;41.40;24.21;;;;;;;6.17;70.95;98474.30;333844;113;2366999;-72
2021/03/15 05:04:25;;;;;;;44.27;26.33;;;;;;;6.19;71.00;98471.39;357362;113;1961835;-73
2021/03/15 05:05:33;;;;;;;45.50;25.83;;;;;;;6.18;71.12;98464.39;357997;112;1961966;-73
2021/03/15 05:06:42;;;;;;;45.57;25.10;;;;;;;6.24;71.13;98471.59;358036;105;1961957;-72
2021/03/15 05:07:50;;;;;;;43.44;27.14;;;;;;;6.30;70.90;98473.47;320418;113;2519983;-73
2021/03/15 05:08:57;;;;;;;46.75;26.98;;;;;;;6.32;70.86;98472.20;351892;113;1961902;-73
2021/03/15 05:10:04;;;;;;;42.57;25.41;;;;;;;6.36;70.50;98476.13;346558;115;1963013;-73
2021/03/15 05:11:10;;;;;;;43.82;24.21;;;;;;;6.37;70.68;98479.63;301237;115;2051983;-73
2021/03/15 05:12:16;;;;;;;41.66;25.27;;;;;;;6.42;70.68;98476.33;347529;115;1962002;-73